Accueil
METAR-TAF:

METAR-TAF

Aéroports :

Aéroport de Brive-Vallée de la Dordogne

Brive-la-Gaillarde, France

latitude: 45-02-28N, longitude: 001-28-59E, altitude: 311 m

Observation

Le bulletin a été fait il y a 21 minutes, à 15:00 UTC
Vent 8 kt de nord-ouest
Température 22°C
Humidité 43%
Pression 1021 hPa
Visibilité 10 km ou plus
pas de nuages en-dessous de 1500 mètres et pas de cumulonimbus.

METAR: LFSL 211500Z AUTO 32008KT CAVOK 22/09 Q1021 NOSIG

Heure: 17:21 (15:21 UTC)

Prévision

Le bulletin a été fait il y a 1 heure et 21 minutes, à 14:00 UTC
Prévision valable du 21 à 15 UTC au 21 à 24 UTC
Vent 7 kt de nord-ouest
Visibilité 10 km ou plus
pas de nuages en-dessous de 1500 mètres et pas de cumulonimbus.

TAF: LFSL 211400Z 2115/2124 31007KT CAVOK

Observations et prévisions météorologiques de plus de 4000 aéroports (messages METAR et TAF).

Les stations disponibles sont représentées par des disques jaunes et rouges sur la carte.

Passer la souris dessus pour voir le nom de la station.

Cliquer dessus pour voir les observations et prévisions météorologiques.

Pour changer de carte: cliquez sur les boutons verts avec une croix noire pour zoomer, sur le bouton vert avec un tiret pour effectuer un zoom arrière, ou sur les flèches vertes pour les cartes adjacentes.


METAR-TAF: